createdAt,value
2019-03-28T00:00:02.729Z,71.85
2019-03-28T00:05:03.395Z,71.91
2019-03-28T00:10:03.011Z,71.92
2019-03-28T00:15:02.516Z,71.95
2019-03-28T00:20:03.084Z,71.95
2019-03-28T00:25:02.506Z,72.0
2019-03-28T00:30:02.959Z,72.03
2019-03-28T00:35:03.426Z,72.04
2019-03-28T00:40:02.917Z,72.07
2019-03-28T00:45:03.390Z,72.11
2019-03-28T00:50:02.765Z,72.14
2019-03-28T00:55:03.256Z,72.13
2019-03-28T01:00:02.933Z,72.15
2019-03-28T01:05:02.876Z,72.19
2019-03-28T01:10:03.455Z,72.21
2019-03-28T01:15:02.831Z,72.24
2019-03-28T01:20:03.316Z,72.3
2019-03-28T01:25:02.707Z,72.31
2019-03-28T01:30:03.192Z,72.3
2019-03-28T01:35:02.556Z,72.32
2019-03-28T01:40:03.015Z,72.32
2019-03-28T01:45:02.532Z,72.35
2019-03-28T01:50:02.971Z,72.33
2019-03-28T01:55:03.547Z,72.38
2019-03-28T02:00:03.073Z,72.41
2019-03-28T02:05:02.448Z,72.4
2019-03-28T02:10:02.904Z,72.42
2019-03-28T02:15:04.221Z,72.48
2019-03-28T02:20:01.955Z,72.51
2019-03-28T02:25:03.413Z,72.53
2019-03-28T02:30:02.941Z,72.55
2019-03-28T02:35:03.387Z,72.58
2019-03-28T02:40:02.904Z,72.61
2019-03-28T02:45:03.823Z,72.65
2019-03-28T02:50:02.661Z,72.67
2019-03-28T02:55:03.217Z,72.69
2019-03-28T03:00:02.630Z,72.72
2019-03-28T03:05:03.025Z,72.74
2019-03-28T03:10:02.485Z,72.76
2019-03-28T03:15:03.603Z,72.79
2019-03-28T03:20:03.369Z,72.79
2019-03-28T03:25:02.800Z,72.8
2019-03-28T03:30:03.714Z,72.82
2019-03-28T03:35:03.407Z,72.81
2019-03-28T03:40:02.905Z,72.82
2019-03-28T03:45:03.343Z,72.86
2019-03-28T03:50:02.758Z,72.87
2019-03-28T03:55:03.203Z,72.87
2019-03-28T04:00:03.581Z,72.88
2019-03-28T04:05:03.180Z,72.87
2019-03-28T04:10:02.687Z,72.88
2019-03-28T04:15:03.137Z,72.9
2019-03-28T04:20:02.559Z,72.92
2019-03-28T04:25:03.004Z,72.93
2019-03-28T04:30:02.437Z,72.96
2019-03-28T04:35:02.864Z,73.0
2019-03-28T04:40:03.408Z,73.01
2019-03-28T04:45:05.388Z,73.02
2019-03-28T04:50:02.226Z,73.02
2019-03-28T04:55:02.687Z,73.1
2019-03-28T05:00:03.098Z,73.1
2019-03-28T05:05:02.562Z,73.13
2019-03-28T05:10:03.023Z,73.15
2019-03-28T05:15:02.418Z,73.15
2019-03-28T05:20:02.855Z,73.17
2019-03-28T05:25:03.287Z,73.21
2019-03-28T05:30:06.403Z,73.2
2019-03-28T05:35:03.096Z,73.24
2019-03-28T05:40:02.575Z,73.23
2019-03-28T05:45:03.061Z,73.25
2019-03-28T05:50:02.426Z,73.27
2019-03-28T05:55:05.382Z,73.29
2019-03-28T06:00:03.366Z,73.33
2019-03-28T06:05:02.839Z,73.32
2019-03-28T06:10:03.428Z,73.35
2019-03-28T06:15:02.953Z,73.89
2019-03-28T06:20:04.236Z,73.95
2019-03-28T06:25:05.814Z,73.91
2019-03-28T06:30:02.636Z,73.94
2019-03-28T06:35:03.106Z,73.94
2019-03-28T06:40:02.580Z,73.97
2019-03-28T06:45:03.672Z,74.0
2019-03-28T06:50:02.460Z,74.0
2019-03-28T06:55:02.913Z,74.0
2019-03-28T07:00:03.360Z,74.1
2019-03-28T07:05:02.780Z,74.1
2019-03-28T07:10:03.530Z,74.1
2019-03-28T07:15:02.918Z,74.1
2019-03-28T07:20:03.503Z,74.1
2019-03-28T07:25:03.005Z,74.1
2019-03-28T07:30:02.401Z,74.09
2019-03-28T07:35:02.882Z,74.1
2019-03-28T07:40:03.593Z,74.05
2019-03-28T07:45:03.046Z,74.05
2019-03-28T07:50:02.426Z,73.99
2019-03-28T07:55:02.851Z,74.06
2019-03-28T08:00:04.605Z,74.12
2019-03-28T08:05:02.660Z,74.09
2019-03-28T08:10:03.214Z,74.09
2019-03-28T08:15:02.633Z,74.07
2019-03-28T08:20:03.076Z,73.99
2019-03-28T08:25:02.606Z,73.97
2019-03-28T08:30:03.044Z,73.96
2019-03-28T08:35:02.428Z,73.88
2019-03-28T08:40:03.005Z,73.88
2019-03-28T08:45:02.388Z,73.79
2019-03-28T08:50:02.875Z,73.78
2019-03-28T08:55:03.313Z,73.71
2019-03-28T09:00:02.829Z,73.68
2019-03-28T09:05:03.281Z,73.66
2019-03-28T09:10:03.004Z,73.63
2019-03-28T09:15:02.389Z,73.56
2019-03-28T09:20:02.826Z,73.52
2019-03-28T09:25:03.283Z,73.48
2019-03-28T09:30:02.693Z,73.45
2019-03-28T09:35:03.138Z,73.42
2019-03-28T09:40:02.579Z,73.36
2019-03-28T09:45:03.005Z,73.3
2019-03-28T09:50:02.407Z,73.33
2019-03-28T09:55:02.813Z,73.15
2019-03-28T10:00:03.305Z,73.12
2019-03-28T10:05:02.713Z,73.22
2019-03-28T10:10:03.092Z,73.1
2019-03-28T10:15:02.588Z,73.08
2019-03-28T10:20:03.130Z,73.18
2019-03-28T10:25:02.542Z,73.17
2019-03-28T10:30:02.905Z,73.15
2019-03-28T10:35:06.714Z,72.93
2019-03-28T10:40:04.484Z,72.93
2019-03-28T10:45:02.896Z,72.87
2019-03-28T10:50:04.284Z,72.83
2019-03-28T10:55:02.850Z,72.88
2019-03-28T11:00:03.293Z,72.76
2019-03-28T11:05:02.706Z,72.3
2019-03-28T11:10:03.148Z,72.1
2019-03-28T11:15:02.612Z,71.75
2019-03-28T11:20:03.021Z,71.31
2019-03-28T11:25:02.469Z,71.01
2019-03-28T11:30:05.097Z,70.97
2019-03-28T11:35:02.540Z,70.63
2019-03-28T11:40:08.899Z,70.38
2019-03-28T11:45:02.694Z,70.08
2019-03-28T11:50:05.408Z,69.54
2019-03-28T11:55:02.804Z,68.51
2019-03-28T12:00:05.495Z,68.49
2019-03-28T12:05:02.907Z,68.43
2019-03-28T12:10:02.461Z,68.53
2019-03-28T12:15:02.874Z,68.45
2019-03-28T12:20:05.473Z,68.38
2019-03-28T12:25:02.938Z,66.81
2019-03-28T12:30:05.836Z,66.43
2019-03-28T12:35:03.315Z,66.47
2019-03-28T12:40:02.877Z,65.11
2019-03-28T12:45:02.440Z,64.93
2019-03-28T12:50:02.091Z,64.76
2019-03-28T12:55:02.514Z,63.84
2019-03-28T13:00:02.897Z,64.27
2019-03-28T13:05:03.309Z,64.35
2019-03-28T13:10:02.828Z,64.62
2019-03-28T13:15:03.280Z,64.96
2019-03-28T13:20:02.677Z,65.42
2019-03-28T13:25:03.120Z,64.98
2019-03-28T13:30:02.540Z,64.32
2019-03-28T13:35:02.955Z,65.06
2019-03-28T13:40:02.330Z,65.51
2019-03-28T13:45:02.819Z,65.45
2019-03-28T13:50:03.235Z,65.19
2019-03-28T13:55:02.566Z,64.89
2019-03-28T14:00:03.012Z,65.24
2019-03-28T14:05:02.450Z,64.87
2019-03-28T14:10:02.879Z,64.5
2019-03-28T14:15:03.325Z,64.68
2019-03-28T14:20:02.730Z,64.43
2019-03-28T14:25:03.197Z,64.65
2019-03-28T14:30:02.593Z,64.47
2019-03-28T14:35:02.945Z,64.41
2019-03-28T14:40:02.460Z,64.49
2019-03-28T14:45:03.013Z,64.72
2019-03-28T14:50:02.633Z,65.0
2019-03-28T14:55:02.956Z,64.87
2019-03-28T15:00:03.316Z,65.22
2019-03-28T15:05:02.737Z,65.96
2019-03-28T15:10:03.179Z,66.37
2019-03-28T15:15:02.591Z,66.54
2019-03-28T15:20:03.039Z,66.71
2019-03-28T15:25:02.548Z,66.87
2019-03-28T15:30:02.898Z,67.07
2019-03-28T15:35:03.256Z,67.37
2019-03-28T15:40:02.667Z,67.62
2019-03-28T15:45:03.257Z,68.01
2019-03-28T15:50:02.649Z,68.23
2019-03-28T15:55:03.106Z,68.51
2019-03-28T16:00:02.498Z,68.66
2019-03-28T16:05:07.008Z,68.92
2019-03-28T16:10:02.498Z,69.01
2019-03-28T16:15:02.836Z,69.2
2019-03-28T16:20:03.247Z,69.3
2019-03-28T16:25:02.670Z,69.45
2019-03-28T16:30:03.103Z,69.52
2019-03-28T16:35:02.438Z,69.7
2019-03-28T16:40:03.986Z,69.79
2019-03-28T16:45:02.411Z,69.98
2019-03-28T16:50:03.675Z,70.06
2019-03-28T16:55:03.174Z,70.15
2019-03-28T17:00:02.508Z,70.22
2019-03-28T17:05:02.859Z,70.31
2019-03-28T17:10:03.507Z,70.36
2019-03-28T17:15:02.833Z,70.45
2019-03-28T17:20:03.227Z,70.5
2019-03-28T17:25:02.667Z,70.55
2019-03-28T17:30:03.107Z,70.62
2019-03-28T17:35:03.794Z,70.68
2019-03-28T17:40:03.274Z,70.72
2019-03-28T17:45:02.619Z,70.87
2019-03-28T17:50:03.017Z,70.91
2019-03-28T17:55:03.580Z,70.99
2019-03-28T18:00:02.984Z,71.04
2019-03-28T18:05:09.295Z,71.13
2019-03-28T18:10:03.670Z,71.17
2019-03-28T18:15:03.226Z,71.23
2019-03-28T18:20:02.592Z,71.28
2019-03-28T18:25:02.983Z,71.32
2019-03-28T18:30:05.147Z,71.38
2019-03-28T18:35:05.641Z,71.45
2019-03-28T18:40:04.425Z,71.5
2019-03-28T18:45:03.017Z,71.57
2019-03-28T18:50:03.857Z,71.6
2019-03-28T18:55:03.601Z,71.29
2019-03-28T19:00:03.059Z,71.42
2019-03-28T19:05:02.395Z,71.52
2019-03-28T19:10:02.976Z,71.54
2019-03-28T19:15:02.356Z,71.56
2019-03-28T19:20:02.819Z,71.55
2019-03-28T19:25:03.197Z,71.59
2019-03-28T19:30:02.593Z,71.64
2019-03-28T19:35:07.113Z,71.74
2019-03-28T19:40:02.991Z,71.76
2019-03-28T19:45:02.565Z,71.82
2019-03-28T19:50:03.034Z,71.93
2019-03-28T19:55:02.534Z,71.93
2019-03-28T20:00:02.862Z,71.91
2019-03-28T20:05:03.194Z,71.93
2019-03-28T20:10:15.375Z,71.96
2019-03-28T20:15:02.331Z,71.92
2019-03-28T20:20:02.679Z,71.94
2019-03-28T20:25:03.019Z,71.95
2019-03-28T20:30:02.435Z,71.97
2019-03-28T20:35:02.875Z,72.03
2019-03-28T20:40:02.540Z,72.04
2019-03-28T20:45:02.976Z,72.05
2019-03-28T20:50:02.357Z,72.06
2019-03-28T20:55:02.701Z,72.08
2019-03-28T21:00:03.405Z,72.11
2019-03-28T21:05:02.766Z,72.14
2019-03-28T21:10:03.659Z,72.21
2019-03-28T21:15:03.208Z,72.24
2019-03-28T21:20:02.554Z,72.28
2019-03-28T21:25:03.012Z,72.31
2019-03-28T21:30:02.429Z,72.33
2019-03-28T21:35:02.862Z,72.36
2019-03-28T21:40:03.310Z,72.36
2019-03-28T21:45:02.720Z,72.36
2019-03-28T21:50:03.069Z,72.4
2019-03-28T21:55:02.425Z,72.42
2019-03-28T22:00:02.777Z,72.45
2019-03-28T22:05:03.273Z,72.47
2019-03-28T22:10:02.790Z,72.5
2019-03-28T22:15:03.134Z,72.54
2019-03-28T22:20:02.543Z,72.6
2019-03-28T22:25:02.899Z,72.58
2019-03-28T22:30:03.241Z,72.62
2019-03-28T22:35:02.568Z,72.74
2019-03-28T22:40:03.010Z,72.75
2019-03-28T22:45:02.359Z,72.75
2019-03-28T22:50:02.768Z,72.75
2019-03-28T22:55:03.214Z,72.79
2019-03-28T23:00:04.278Z,72.8
2019-03-28T23:05:03.038Z,72.8
2019-03-28T23:10:02.496Z,72.79
2019-03-28T23:15:02.036Z,72.85
2019-03-28T23:20:02.455Z,72.88
2019-03-28T23:25:02.887Z,72.95
2019-03-28T23:30:03.360Z,72.96
2019-03-28T23:35:02.756Z,73.0
2019-03-28T23:40:03.829Z,73.02
2019-03-28T23:45:03.232Z,73.01
2019-03-28T23:50:02.559Z,73.01
2019-03-28T23:55:02.986Z,73.0
